Time;durP1;ratioP1;P1;durP2;ratioP2;P2;SDS_P1;SDS_P2;PMS_P1;PMS_P2;Temp;Humidity;BMP_temperature;BMP_pressure;BME280_temperature;BME280_humidity;BME280_pressure;Samples;Min_cycle;Max_cycle;Signal;HPM_P1;HPM_P2
2023/05/25 00:02:07;;;;;;;22.90;13.95;;;;;;;16.67;70.51;99806.31;5054262;28;20104;-51
2023/05/25 00:04:33;;;;;;;22.95;14.23;;;;;;;16.70;70.64;99803.28;5054790;28;20352;-50
2023/05/25 00:07:00;;;;;;;24.48;14.02;;;;;;;16.68;70.45;99808.88;5054341;28;20025;-55
2023/05/25 00:09:25;;;;;;;24.88;14.27;;;;;;;16.67;70.80;99809.00;5054534;28;20032;-54
2023/05/25 00:11:51;;;;;;;19.30;14.30;;;;;;;16.69;70.69;99813.25;5054254;28;20044;-56
2023/05/25 00:14:18;;;;;;;24.38;15.23;;;;;;;16.67;70.74;99814.41;5016832;28;20033;-51
2023/05/25 00:16:47;;;;;;;34.60;14.98;;;;;;;16.62;70.69;99802.25;5034292;28;20045;-50
2023/05/25 00:19:13;;;;;;;22.55;16.08;;;;;;;16.67;70.79;99819.81;5034421;28;20068;-53
2023/05/25 00:21:40;;;;;;;30.08;16.42;;;;;;;16.62;71.15;99804.94;5034114;28;20041;-49
2023/05/25 00:24:06;;;;;;;23.75;16.23;;;;;;;16.61;71.56;99805.09;5053490;28;20033;-55
2023/05/25 00:26:32;;;;;;;32.30;16.55;;;;;;;16.63;71.64;99809.34;5054244;28;20140;-52
2023/05/25 00:28:59;;;;;;;34.17;15.88;;;;;;;16.61;71.54;99803.25;5054197;28;20416;-57
2023/05/25 00:31:25;;;;;;;33.05;16.40;;;;;;;16.42;71.76;99773.78;5053791;28;20071;-50
2023/05/25 00:33:51;;;;;;;34.38;16.35;;;;;;;16.57;71.76;99796.50;5054346;28;20036;-53
2023/05/25 00:36:16;;;;;;;28.92;15.88;;;;;;;16.57;71.75;99798.34;5053465;28;20456;-54
2023/05/25 00:38:42;;;;;;;30.52;16.10;;;;;;;16.54;72.00;99795.97;5053247;28;20032;-54
2023/05/25 00:41:07;;;;;;;26.42;16.17;;;;;;;16.51;71.58;99799.81;5054103;28;20033;-54
2023/05/25 00:43:34;;;;;;;32.08;15.32;;;;;;;16.53;71.59;99797.84;5054212;28;20116;-56
2023/05/25 00:46:00;;;;;;;32.63;16.60;;;;;;;16.49;71.66;99800.00;5053655;28;20033;-60
2023/05/25 00:48:25;;;;;;;26.73;14.48;;;;;;;16.46;72.02;99791.38;5053649;28;20029;-51
2023/05/25 00:50:56;;;;;;;31.30;16.38;;;;;;;16.44;71.78;99778.03;5053359;28;20032;-53
2023/05/25 00:53:23;;;;;;;30.08;15.55;;;;;;;16.41;72.20;99775.66;5053638;28;20029;-52
2023/05/25 00:55:57;;;;;;;34.42;16.75;;;;;;;16.40;72.62;99765.00;5053542;28;20064;-56
2023/05/25 00:58:26;;;;;;;35.35;15.93;;;;;;;16.43;72.86;99776.34;5053050;28;20032;-50
2023/05/25 01:00:55;;;;;;;42.22;16.63;;;;;;;16.30;73.22;99759.72;5053655;28;20033;-48
2023/05/25 01:03:26;;;;;;;38.72;17.00;;;;;;;16.39;72.69;99774.13;5053510;28;20397;-51
2023/05/25 01:05:56;;;;;;;36.13;17.00;;;;;;;16.41;73.08;99782.91;5053357;28;20313;-52
2023/05/25 01:08:23;;;;;;;38.80;16.52;;;;;;;16.16;72.50;99735.06;5052976;28;20167;-49
2023/05/25 01:10:51;;;;;;;39.25;18.42;;;;;;;16.31;72.88;99756.88;5053571;28;20423;-51
2023/05/25 01:13:18;;;;;;;41.38;16.67;;;;;;;16.31;73.08;99756.03;5053470;28;20040;-52
2023/05/25 01:15:46;;;;;;;36.45;16.88;;;;;;;16.25;73.10;99751.28;5053168;28;20025;-54
2023/05/25 01:18:15;;;;;;;36.38;16.58;;;;;;;16.32;73.42;99758.56;5052767;28;20088;-54
2023/05/25 01:21:25;;;;;;;43.08;17.85;;;;;;;16.43;73.52;99754.72;5053679;28;20120;-55
2023/05/25 01:24:21;;;;;;;37.97;16.85;;;;;;;16.42;73.38;99755.75;5044644;28;20473;-52
2023/05/25 01:27:21;;;;;;;48.75;16.88;;;;;;;16.45;73.34;99744.59;5052564;28;20075;-54
2023/05/25 01:29:48;;;;;;;37.00;18.65;;;;;;;16.33;73.25;99743.19;5032976;28;20087;-52
2023/05/25 01:32:16;;;;;;;33.15;16.38;;;;;;;16.31;72.82;99745.22;5033452;28;20039;-53
2023/05/25 01:34:42;;;;;;;36.65;19.25;;;;;;;16.34;73.02;99740.34;5032773;28;20037;-53
2023/05/25 01:37:08;;;;;;;32.00;17.85;;;;;;;16.14;73.08;99701.09;5032739;28;20045;-53
2023/05/25 01:39:34;;;;;;;28.45;17.58;;;;;;;16.44;72.79;99729.41;5033964;28;20026;-52
2023/05/25 01:42:00;;;;;;;45.05;17.60;;;;;;;16.52;72.99;99730.44;5053228;28;20041;-54
2023/05/25 01:44:27;;;;;;;26.13;15.93;;;;;;;16.55;72.52;99747.16;5052279;28;20025;-52
2023/05/25 01:47:01;;;;;;;43.25;18.13;;;;;;;16.53;72.58;99722.16;5052533;28;20417;-55
2023/05/25 01:49:43;;;;;;;30.95;18.65;;;;;;;16.74;72.15;99748.72;5052245;28;20032;-55
2023/05/25 01:52:17;;;;;;;33.08;17.98;;;;;;;16.84;72.29;99755.81;5052557;28;20072;-55
2023/05/25 01:54:46;;;;;;;32.65;18.35;;;;;;;16.84;72.37;99756.69;5052341;28;20389;-53
2023/05/25 01:57:14;;;;;;;37.58;18.90;;;;;;;16.84;72.13;99750.41;5052503;28;20040;-50
2023/05/25 01:59:43;;;;;;;31.70;18.30;;;;;;;17.04;71.87;99768.06;5051316;28;20156;-52
2023/05/25 02:02:09;;;;;;;31.45;17.85;;;;;;;17.11;71.61;99764.66;5051830;28;20037;-55
2023/05/25 02:04:35;;;;;;;31.45;19.23;;;;;;;17.22;71.58;99770.59;5052412;28;20040;-54
2023/05/25 02:07:03;;;;;;;31.77;20.20;;;;;;;17.32;71.10;99769.59;5052911;28;20040;-55
2023/05/25 02:09:28;;;;;;;30.70;18.10;;;;;;;17.40;70.59;99766.88;5052271;28;20186;-52
2023/05/25 02:11:54;;;;;;;35.85;19.35;;;;;;;17.49;70.20;99765.00;5051984;28;20482;-52
2023/05/25 02:14:20;;;;;;;34.45;17.92;;;;;;;17.36;69.79;99724.94;5052344;28;20046;-55
2023/05/25 02:16:45;;;;;;;32.40;18.33;;;;;;;17.70;69.29;99756.34;5051809;28;20071;-49
2023/05/25 02:19:13;;;;;;;26.85;17.45;;;;;;;17.86;69.04;99754.63;5051894;28;20045;-48
2023/05/25 02:21:42;;;;;;;29.02;18.58;;;;;;;18.03;68.60;99764.44;5052409;28;20043;-55
2023/05/25 02:24:09;;;;;;;26.52;17.83;;;;;;;18.28;68.20;99775.19;5052179;28;20052;-52
2023/05/25 02:26:35;;;;;;;33.60;18.30;;;;;;;18.52;67.20;99781.53;5052330;28;20021;-53
2023/05/25 02:29:02;;;;;;;32.40;17.92;;;;;;;18.78;65.94;99774.94;5052386;28;20037;-53
2023/05/25 02:31:27;;;;;;;22.85;17.55;;;;;;;19.06;65.31;99778.00;5051894;28;20448;-48
2023/05/25 02:33:53;;;;;;;29.20;16.23;;;;;;;19.30;64.84;99789.72;5051829;28;20029;-50
2023/05/25 02:36:18;;;;;;;25.52;16.63;;;;;;;19.55;63.62;99783.19;5051914;28;20511;-53
2023/05/25 02:38:46;;;;;;;32.55;18.35;;;;;;;19.85;62.46;99792.25;5052128;28;20037;-54
2023/05/25 02:41:11;;;;;;;32.67;16.95;;;;;;;20.05;62.36;99786.31;5051714;28;20025;-52
2023/05/25 02:43:38;;;;;;;22.88;15.25;;;;;;;20.23;61.60;99784.03;5051795;28;20106;-56
2023/05/25 02:46:03;;;;;;;25.58;15.98;;;;;;;20.46;61.13;99774.09;5052175;28;20025;-53
2023/05/25 02:48:29;;;;;;;25.33;16.95;;;;;;;20.72;60.78;99792.59;5051870;28;20040;-51
2023/05/25 02:50:54;;;;;;;28.73;16.85;;;;;;;20.91;59.51;99790.31;5051865;28;20124;-54
2023/05/25 02:53:20;;;;;;;26.70;17.70;;;;;;;21.03;59.27;99780.63;5051850;28;20471;-51
2023/05/25 02:55:45;;;;;;;28.58;16.42;;;;;;;21.20;59.14;99788.50;5052205;28;20029;-49
2023/05/25 02:58:11;;;;;;;32.75;18.40;;;;;;;21.17;58.54;99778.88;5051576;28;20029;-52
2023/05/25 03:00:36;;;;;;;26.85;16.83;;;;;;;21.34;58.02;99789.47;5051266;28;20025;-62
2023/05/25 03:03:02;;;;;;;32.92;18.10;;;;;;;21.47;57.83;99788.78;5034539;28;20119;-51
2023/05/25 03:05:27;;;;;;;29.30;18.17;;;;;;;21.57;57.49;99789.28;5052129;28;20160;-52
2023/05/25 03:07:53;;;;;;;28.15;18.20;;;;;;;21.76;56.86;99795.13;5051647;28;20022;-50
2023/05/25 03:10:18;;;;;;;33.85;19.05;;;;;;;21.94;56.42;99800.06;5051537;28;20025;-53
2023/05/25 03:12:44;;;;;;;27.83;19.33;;;;;;;22.00;56.11;99787.53;5054110;28;20519;-50
2023/05/25 03:15:12;;;;;;;27.08;21.30;;;;;;;22.26;55.02;99807.81;5055318;28;20457;-56
2023/05/25 03:17:37;;;;;;;25.83;20.35;;;;;;;22.30;54.76;99790.81;5055871;28;20045;-61
2023/05/25 03:20:03;;;;;;;30.13;19.52;;;;;;;22.65;54.12;99801.72;5055308;28;20045;-53
2023/05/25 03:22:30;;;;;;;29.95;20.75;;;;;;;22.97;53.11;99797.59;5055230;28;20064;-56
2023/05/25 03:24:55;;;;;;;28.75;21.45;;;;;;;23.15;52.47;99786.09;5055355;28;20076;-57
2023/05/25 03:27:21;;;;;;;28.92;21.27;;;;;;;23.47;51.36;99810.97;5055597;28;20467;-50
2023/05/25 03:29:49;;;;;;;29.02;21.88;;;;;;;23.83;51.08;99812.41;5054906;28;20115;-55
2023/05/25 03:32:15;;;;;;;31.23;21.25;;;;;;;24.13;49.98;99813.88;5054761;28;20060;-56
2023/05/25 03:34:41;;;;;;;30.52;21.73;;;;;;;24.31;49.50;99789.44;5055157;28;20103;-53
2023/05/25 03:37:07;;;;;;;32.10;21.42;;;;;;;24.66;48.98;99807.41;5055668;28;20447;-54
2023/05/25 03:39:32;;;;;;;33.67;22.13;;;;;;;24.74;47.75;99801.66;5054777;28;20033;-50
2023/05/25 03:41:58;;;;;;;34.10;22.42;;;;;;;24.71;47.55;99785.69;5054733;28;20407;-52
2023/05/25 03:44:24;;;;;;;33.60;22.50;;;;;;;24.88;47.49;99786.03;5054683;28;20037;-55
2023/05/25 03:46:49;;;;;;;26.83;19.38;;;;;;;25.04;46.95;99784.66;5054785;28;20025;-52
2023/05/25 03:49:15;;;;;;;25.58;19.00;;;;;;;25.49;45.67;99796.63;5054586;28;20259;-54
2023/05/25 03:51:42;;;;;;;26.88;19.20;;;;;;;25.93;44.48;99789.25;5054365;28;20151;-56
2023/05/25 03:54:08;;;;;;;28.83;18.70;;;;;;;26.29;43.09;99783.22;5055317;28;20471;-51
2023/05/25 03:56:33;;;;;;;24.52;17.60;;;;;;;26.73;41.94;99791.34;5054516;28;20060;-50
2023/05/25 03:58:59;;;;;;;26.15;18.48;;;;;;;27.11;41.04;99781.09;5054196;28;20060;-52
2023/05/25 04:01:25;;;;;;;23.40;17.83;;;;;;;27.36;40.21;99753.41;5054885;28;20111;-55
2023/05/25 04:03:51;;;;;;;23.98;18.20;;;;;;;27.78;39.56;99747.03;5054401;28;20033;-50
2023/05/25 04:06:18;;;;;;;22.25;17.13;;;;;;;28.60;38.48;99782.91;5053924;28;20025;-53
2023/05/25 04:08:44;;;;;;;27.60;16.63;;;;;;;29.06;36.64;99774.72;5054266;28;20052;-54
2023/05/25 04:11:10;;;;;;;23.42;16.23;;;;;;;29.37;36.68;99775.25;5054489;28;20029;-49
2023/05/25 04:13:38;;;;;;;26.05;15.98;;;;;;;29.61;36.40;99767.66;5054110;28;20036;-55
2023/05/25 04:16:05;;;;;;;21.38;15.77;;;;;;;29.87;35.53;99779.06;5054514;28;20124;-51
2023/05/25 04:18:32;;;;;;;18.67;16.02;;;;;;;29.96;34.87;99731.75;5053730;28;20044;-52
2023/05/25 04:20:57;;;;;;;20.75;18.00;;;;;;;29.84;35.58;99745.66;5054061;28;20057;-54
2023/05/25 04:23:23;;;;;;;20.48;17.23;;;;;;;30.20;34.88;99759.97;5053815;28;20071;-54
2023/05/25 04:25:50;;;;;;;21.38;17.00;;;;;;;30.35;34.39;99767.59;5054250;28;20028;-55
2023/05/25 04:28:16;;;;;;;21.38;18.67;;;;;;;30.21;35.12;99748.66;5053829;28;20044;-53
2023/05/25 04:30:42;;;;;;;23.83;19.98;;;;;;;30.94;33.97;99757.78;5054222;28;20464;-64
2023/05/25 04:33:10;;;;;;;29.15;20.50;;;;;;;31.40;33.49;99756.56;5054564;28;20033;-58
2023/05/25 04:35:36;;;;;;;26.40;21.52;;;;;;;31.25;33.89;99771.09;5054190;28;20037;-54
2023/05/25 04:38:03;;;;;;;30.33;22.55;;;;;;;30.56;34.42;99767.84;5053046;28;20111;-56
2023/05/25 04:40:31;;;;;;;36.50;23.00;;;;;;;30.49;35.05;99768.03;5054086;28;20083;-55
2023/05/25 04:42:57;;;;;;;27.27;21.25;;;;;;;30.84;34.50;99735.56;5054225;28;20033;-51
2023/05/25 04:45:23;;;;;;;32.47;21.73;;;;;;;31.57;33.18;99756.41;5053691;28;20052;-55
2023/05/25 04:47:49;;;;;;;23.65;21.23;;;;;;;32.13;31.88;99757.88;5052780;28;20113;-56
2023/05/25 04:50:14;;;;;;;26.42;20.63;;;;;;;32.97;30.91;99774.53;5053653;28;20441;-51
2023/05/25 04:52:40;;;;;;;29.80;20.60;;;;;;;33.31;30.40;99762.09;5054461;28;20437;-53
2023/05/25 04:55:06;;;;;;;24.50;18.75;;;;;;;33.71;29.25;99787.34;5053564;28;20091;-52
2023/05/25 04:57:31;;;;;;;25.30;18.42;;;;;;;34.01;28.69;99769.00;5053284;28;20463;-55
2023/05/25 04:59:57;;;;;;;27.05;19.23;;;;;;;34.49;28.18;99783.28;5053463;28;20029;-57
2023/05/25 05:02:24;;;;;;;23.10;18.65;;;;;;;34.93;27.15;99778.84;5053476;28;20029;-54
2023/05/25 05:04:53;;;;;;;23.95;18.15;;;;;;;35.52;26.98;99771.78;5053626;28;20048;-54
2023/05/25 05:07:21;;;;;;;18.80;16.15;;;;;;;36.29;26.18;99770.13;5053069;28;20094;-52
2023/05/25 05:09:48;;;;;;;20.23;15.85;;;;;;;36.44;25.43;99772.72;5053300;28;20365;-54
2023/05/25 05:12:13;;;;;;;17.38;14.23;;;;;;;36.17;25.33;99762.19;5053582;28;20029;-58
2023/05/25 05:14:39;;;;;;;16.85;13.95;;;;;;;35.60;25.88;99773.94;5035790;28;20426;-56
2023/05/25 05:17:05;;;;;;;15.45;13.00;;;;;;;35.11;26.55;99773.75;5052750;28;20048;-55
2023/05/25 05:19:31;;;;;;;17.17;13.68;;;;;;;34.66;27.16;99773.72;5052969;28;20346;-53
2023/05/25 05:21:57;;;;;;;19.05;13.80;;;;;;;33.96;28.10;99767.06;5053116;28;20121;-55
2023/05/25 05:24:23;;;;;;;20.33;13.10;;;;;;;32.82;29.97;99777.28;5052801;28;20064;-52
2023/05/25 05:26:49;;;;;;;18.50;14.30;;;;;;;31.52;31.66;99767.44;5052195;28;20036;-52
2023/05/25 05:29:15;;;;;;;15.95;14.07;;;;;;;30.37;34.20;99776.47;5053093;28;20021;-55
2023/05/25 05:31:41;;;;;;;17.48;14.55;;;;;;;29.31;35.95;99770.75;5053326;28;20384;-52
2023/05/25 05:34:07;;;;;;;20.38;15.20;;;;;;;28.36;37.65;99782.97;5052688;28;20036;-54
2023/05/25 05:36:32;;;;;;;17.67;13.45;;;;;;;27.80;38.67;99781.47;5051935;28;20052;-53
2023/05/25 05:38:58;;;;;;;18.30;13.90;;;;;;;27.36;39.47;99776.25;5052361;28;20420;-51
2023/05/25 05:41:24;;;;;;;20.00;13.18;;;;;;;27.00;40.57;99769.00;5052144;28;20251;-56
2023/05/25 05:43:49;;;;;;;18.55;14.23;;;;;;;26.55;40.96;99762.00;5052275;28;20024;-54
2023/05/25 05:46:15;;;;;;;17.02;13.23;;;;;;;26.31;41.70;99761.88;5052766;28;20064;-53
2023/05/25 05:48:41;;;;;;;22.30;14.88;;;;;;;26.14;42.48;99770.69;5051991;28;20033;-55
2023/05/25 05:51:06;;;;;;;20.67;14.88;;;;;;;26.08;42.57;99768.88;5052154;28;21465;-54
2023/05/25 05:53:34;;;;;;;17.25;14.85;;;;;;;26.07;42.65;99767.19;5051901;28;20033;-52
2023/05/25 05:56:00;;;;;;;20.65;14.40;;;;;;;26.18;42.59;99780.16;5052589;28;20029;-53
2023/05/25 05:58:26;;;;;;;17.85;15.95;;;;;;;26.16;42.60;99782.28;5052101;28;20368;-52
2023/05/25 06:00:52;;;;;;;16.85;15.00;;;;;;;26.04;43.60;99778.59;5051789;28;20033;-53
2023/05/25 06:03:20;;;;;;;22.42;15.30;;;;;;;25.81;43.79;99782.84;5052500;28;20452;-53
2023/05/25 06:05:46;;;;;;;18.85;14.95;;;;;;;25.58;44.23;99778.00;5052444;28;20036;-53
2023/05/25 06:08:12;;;;;;;16.77;13.98;;;;;;;25.14;44.31;99745.00;5048221;28;20073;-53
2023/05/25 06:10:38;;;;;;;25.90;17.27;;;;;;;25.02;45.26;99777.75;5050940;28;20059;-51
2023/05/25 06:13:06;;;;;;;20.23;15.85;;;;;;;24.78;46.15;99785.69;5050170;28;20449;-51
2023/05/25 06:15:31;;;;;;;20.02;15.90;;;;;;;24.58;46.48;99769.31;5051246;28;20032;-54
2023/05/25 06:17:57;;;;;;;21.33;16.40;;;;;;;24.34;47.30;99775.31;5052109;28;20057;-55
2023/05/25 06:20:22;;;;;;;21.15;15.55;;;;;;;24.17;48.04;99769.50;5051873;28;20029;-55
2023/05/25 06:22:48;;;;;;;23.50;15.90;;;;;;;23.94;47.90;99757.09;5052047;28;20025;-62
2023/05/25 06:25:15;;;;;;;21.67;15.50;;;;;;;23.89;48.20;99776.03;5052269;28;20032;-54
2023/05/25 06:27:41;;;;;;;19.30;16.83;;;;;;;23.81;48.29;99776.25;5051694;28;20056;-56
2023/05/25 06:30:07;;;;;;;19.85;15.45;;;;;;;23.61;48.96;99766.16;5051878;28;20057;-55
2023/05/25 06:32:33;;;;;;;19.98;14.85;;;;;;;23.57;49.09;99775.84;5051828;28;20047;-56
2023/05/25 06:34:59;;;;;;;25.63;15.93;;;;;;;23.35;49.46;99737.00;5051709;28;20024;-56
2023/05/25 06:37:24;;;;;;;22.60;17.08;;;;;;;23.54;49.46;99767.25;5052119;28;20106;-57
2023/05/25 06:39:50;;;;;;;22.45;16.60;;;;;;;23.55;50.36;99758.00;5051799;28;20411;-59
2023/05/25 06:42:15;;;;;;;28.73;16.95;;;;;;;23.47;50.00;99737.19;5051890;28;20127;-56
2023/05/25 06:44:41;;;;;;;33.03;15.90;;;;;;;23.44;50.00;99734.88;5051523;28;20453;-56
2023/05/25 06:47:06;;;;;;;29.27;16.40;;;;;;;23.60;50.38;99777.34;5036104;28;20124;-53
2023/05/25 06:49:32;;;;;;;26.50;15.40;;;;;;;23.51;50.01;99776.69;5054978;28;20157;-53
2023/05/25 06:51:57;;;;;;;23.02;15.98;;;;;;;23.41;49.98;99765.38;5055263;28;20024;-55
2023/05/25 06:54:23;;;;;;;22.13;14.75;;;;;;;23.24;50.68;99760.28;5055868;28;20033;-52
2023/05/25 06:56:48;;;;;;;18.35;13.15;;;;;;;23.08;50.33;99770.53;5056223;28;20033;-55
2023/05/25 06:59:14;;;;;;;18.25;12.07;;;;;;;22.94;51.00;99766.94;5055788;28;20025;-57
2023/05/25 07:01:39;;;;;;;20.25;12.02;;;;;;;22.76;51.11;99753.03;5054841;28;20033;-54
2023/05/25 07:04:05;;;;;;;18.20;12.95;;;;;;;22.91;51.05;99774.72;5055180;28;20021;-56
2023/05/25 07:06:31;;;;;;;14.43;12.27;;;;;;;22.86;50.82;99758.09;5055680;28;20021;-51
2023/05/25 07:08:57;;;;;;;19.73;12.82;;;;;;;22.92;50.91;99765.50;5055742;28;20029;-54
2023/05/25 07:11:22;;;;;;;20.08;11.77;;;;;;;22.93;50.81;99773.44;5055133;28;20078;-58
2023/05/25 07:13:48;;;;;;;18.83;12.73;;;;;;;22.88;50.71;99777.84;5055431;28;20093;-55
2023/05/25 07:16:14;;;;;;;19.23;13.68;;;;;;;22.79;50.88;99778.03;5055569;28;20056;-54
2023/05/25 07:18:40;;;;;;;17.77;13.35;;;;;;;22.55;51.74;99779.44;5055864;28;20040;-51
2023/05/25 07:21:08;;;;;;;20.02;14.13;;;;;;;22.40;53.11;99775.97;5054502;28;20036;-53
2023/05/25 07:23:35;;;;;;;26.05;15.25;;;;;;;22.36;53.87;99781.00;5055244;28;20033;-52
2023/05/25 07:26:01;;;;;;;28.67;16.13;;;;;;;22.45;54.42;99785.25;5055573;28;20033;-57
2023/05/25 07:28:26;;;;;;;25.58;15.85;;;;;;;22.44;54.84;99778.09;5055029;28;20158;-54
2023/05/25 07:30:52;;;;;;;22.10;15.25;;;;;;;22.64;55.54;99777.34;5050388;28;20048;-69
2023/05/25 07:33:17;;;;;;;26.30;16.52;;;;;;;22.70;55.80;99770.25;5049369;28;20098;-63
2023/05/25 07:35:43;;;;;;;25.20;15.60;;;;;;;22.89;55.35;99780.38;5054620;28;20380;-61
2023/05/25 07:38:08;;;;;;;23.13;16.92;;;;;;;22.82;55.32;99741.31;5019812;28;20025;-62
2023/05/25 07:40:34;;;;;;;20.52;17.38;;;;;;;22.79;54.33;99739.00;5054669;28;20040;-61
2023/05/25 07:43:00;;;;;;;22.10;16.52;;;;;;;22.88;55.40;99728.72;5054748;28;20108;-63
2023/05/25 07:45:25;;;;;;;25.48;17.05;;;;;;;22.99;54.55;99746.38;5054564;28;20400;-67
2023/05/25 07:47:51;;;;;;;23.92;17.10;;;;;;;23.13;54.06;99769.06;5036750;28;20064;-63
2023/05/25 07:50:17;;;;;;;22.00;17.42;;;;;;;23.12;54.24;99756.47;5054592;28;20024;-62
2023/05/25 07:52:44;;;;;;;25.38;17.10;;;;;;;23.08;54.05;99748.69;5054655;28;20135;-61
2023/05/25 07:55:09;;;;;;;29.35;16.55;;;;;;;23.26;53.68;99774.59;5053762;28;20029;-68
2023/05/25 07:57:35;;;;;;;24.80;17.88;;;;;;;23.27;54.58;99761.75;5054015;28;20111;-62
2023/05/25 08:00:01;;;;;;;22.75;17.80;;;;;;;23.25;54.13;99753.78;5053886;28;20028;-61
2023/05/25 08:02:32;;;;;;;21.73;17.30;;;;;;;23.28;53.51;99761.56;5050287;28;20064;-62
2023/05/25 08:04:58;;;;;;;23.80;17.25;;;;;;;23.19;53.90;99757.34;5053761;28;20061;-61
2023/05/25 08:07:24;;;;;;;19.92;17.08;;;;;;;23.03;54.06;99762.13;5054407;28;20029;-62
2023/05/25 08:09:49;;;;;;;19.17;15.40;;;;;;;22.88;54.44;99764.19;5054369;28;20037;-61
2023/05/25 08:12:15;;;;;;;24.08;16.10;;;;;;;22.68;54.37;99750.50;5054073;28;20067;-60
2023/05/25 08:14:40;;;;;;;23.08;16.42;;;;;;;22.60;54.78;99757.84;5053548;28;20365;-62
2023/05/25 08:17:06;;;;;;;21.42;18.20;;;;;;;22.47;55.73;99761.38;5053650;28;20385;-59
2023/05/25 08:19:32;;;;;;;27.67;18.13;;;;;;;22.27;56.76;99755.78;5053382;28;20044;-60
2023/05/25 08:21:58;;;;;;;29.02;19.30;;;;;;;22.06;57.81;99771.22;5054278;28;20037;-61
2023/05/25 08:24:24;;;;;;;34.05;20.48;;;;;;;21.91;58.53;99767.75;5053750;28;20079;-64
2023/05/25 08:26:50;;;;;;;28.48;19.77;;;;;;;21.87;58.75;99766.47;5054250;28;20028;-62
2023/05/25 08:29:15;;;;;;;29.40;20.58;;;;;;;21.71;59.12;99746.66;5053011;28;20033;-60
2023/05/25 08:31:42;;;;;;;31.00;20.58;;;;;;;21.75;59.21;99758.84;5053197;28;20463;-61
2023/05/25 08:34:08;;;;;;;26.00;19.80;;;;;;;21.74;59.58;99765.31;5053987;28;20029;-62
2023/05/25 08:36:35;;;;;;;27.30;19.88;;;;;;;21.69;60.20;99772.41;5053481;28;20025;-61
2023/05/25 08:39:01;;;;;;;27.60;20.42;;;;;;;21.64;60.18;99768.41;5053609;28;20040;-63
2023/05/25 08:41:28;;;;;;;28.45;20.70;;;;;;;21.50;60.07;99752.97;5036070;28;20068;-60
2023/05/25 08:43:54;;;;;;;30.45;22.90;;;;;;;21.52;60.41;99769.97;5053836;28;20028;-61
2023/05/25 08:46:28;;;;;;;29.80;22.95;;;;;;;21.47;60.95;99758.81;5053062;28;20040;-60
2023/05/25 08:49:03;;;;;;;28.50;22.37;;;;;;;21.32;61.05;99754.28;5052813;28;20033;-64
2023/05/25 08:51:35;;;;;;;36.75;22.27;;;;;;;21.28;61.34;99741.25;5053853;28;20254;-60
2023/05/25 08:54:09;;;;;;;25.92;22.25;;;;;;;21.39;61.65;99770.69;5053272;28;20036;-62
2023/05/25 08:56:46;;;;;;;29.70;22.70;;;;;;;21.28;61.44;99768.50;5053117;28;20109;-60
2023/05/25 08:59:25;;;;;;;26.73;22.23;;;;;;;21.25;61.55;99777.06;5052645;28;20524;-61
2023/05/25 09:01:56;;;;;;;24.80;21.65;;;;;;;21.11;61.67;99776.09;5037708;28;20033;-62
2023/05/25 09:04:22;;;;;;;30.25;22.73;;;;;;;20.97;62.46;99769.66;5052680;28;20472;-62
2023/05/25 09:06:48;;;;;;;24.42;21.73;;;;;;;20.96;63.12;99768.81;5053087;28;20032;-63
2023/05/25 09:09:13;;;;;;;31.88;23.17;;;;;;;20.90;63.67;99766.88;5052824;28;20079;-61
2023/05/25 09:11:40;;;;;;;33.95;24.75;;;;;;;20.81;63.61;99749.00;5053226;28;20487;-59
2023/05/25 09:14:09;;;;;;;31.98;23.73;;;;;;;20.79;64.32;99747.31;5051609;28;20051;-62
2023/05/25 09:16:36;;;;;;;28.58;24.42;;;;;;;20.93;64.49;99763.75;5051559;28;20055;-62
2023/05/25 09:19:02;;;;;;;53.80;27.08;;;;;;;20.94;65.58;99768.16;5051970;28;20120;-64
2023/05/25 09:21:27;;;;;;;41.72;26.40;;;;;;;20.87;66.09;99762.69;5053483;28;20143;-60
2023/05/25 09:23:53;;;;;;;43.65;29.50;;;;;;;20.81;66.92;99778.91;5052778;28;20437;-53
2023/05/25 09:26:19;;;;;;;40.65;27.48;;;;;;;20.68;67.51;99774.97;5053153;28;20033;-53
2023/05/25 09:28:47;;;;;;;38.10;29.15;;;;;;;20.41;68.52;99771.94;5052568;28;20057;-56
2023/05/25 09:31:15;;;;;;;39.50;29.77;;;;;;;20.25;69.87;99781.13;5052929;28;20098;-54
2023/05/25 09:33:41;;;;;;;37.50;29.88;;;;;;;20.04;71.16;99776.47;5052270;28;20037;-57
2023/05/25 09:36:08;;;;;;;38.40;28.88;;;;;;;19.99;72.05;99781.59;5051124;28;20045;-61
2023/05/25 09:38:33;;;;;;;37.78;30.95;;;;;;;19.89;72.89;99774.53;5052163;28;20033;-57
2023/05/25 09:40:59;;;;;;;41.70;32.20;;;;;;;19.91;73.08;99783.38;5052394;28;20029;-51
2023/05/25 09:43:25;;;;;;;37.03;30.10;;;;;;;19.91;73.25;99788.81;5052453;28;20041;-62
2023/05/25 09:45:51;;;;;;;39.90;33.17;;;;;;;19.94;74.06;99788.44;5052013;28;20063;-54
2023/05/25 09:48:17;;;;;;;40.78;32.20;;;;;;;19.95;73.54;99789.31;5051837;28;20029;-56
2023/05/25 09:50:43;;;;;;;43.30;31.95;;;;;;;19.92;73.14;99782.34;5051990;28;20368;-48
2023/05/25 09:53:10;;;;;;;40.05;31.90;;;;;;;19.94;73.43;99779.47;5052325;28;20035;-57
2023/05/25 09:55:37;;;;;;;40.80;33.83;;;;;;;19.92;73.74;99787.78;5041116;28;20393;-59
2023/05/25 09:58:02;;;;;;;43.40;34.15;;;;;;;20.01;73.89;99776.81;5034447;28;20045;-56
2023/05/25 10:00:28;;;;;;;37.80;31.63;;;;;;;20.03;73.06;99778.34;5050706;28;20029;-54
2023/05/25 10:02:53;;;;;;;44.70;33.22;;;;;;;20.13;73.62;99769.03;5052027;28;20036;-51
2023/05/25 10:05:19;;;;;;;39.47;32.13;;;;;;;20.16;72.92;99769.53;5050666;28;20040;-50
2023/05/25 10:07:45;;;;;;;42.22;32.75;;;;;;;20.14;72.78;99762.59;5051204;28;20416;-51
2023/05/25 10:10:15;;;;;;;40.72;32.53;;;;;;;20.15;72.93;99767.00;5040889;28;20028;-57
2023/05/25 10:12:43;;;;;;;38.35;33.58;;;;;;;20.06;73.60;99782.56;5051440;28;20127;-61
2023/05/25 10:15:11;;;;;;;38.08;33.50;;;;;;;20.05;74.71;99770.00;5051858;28;20033;-51
2023/05/25 10:17:44;;;;;;;39.22;34.97;;;;;;;20.11;74.37;99774.69;5051159;28;20059;-58
2023/05/25 10:20:12;;;;;;;43.42;33.22;;;;;;;20.08;74.01;99766.91;5052133;28;20083;-57
2023/05/25 10:22:50;;;;;;;38.65;33.45;;;;;;;20.24;73.92;99771.31;5051249;28;20036;-52
2023/05/25 10:25:40;;;;;;;43.75;34.88;;;;;;;20.33;74.81;99766.59;5051690;28;20158;-54
2023/05/25 10:28:26;;;;;;;43.03;33.38;;;;;;;20.59;74.18;99765.25;5051801;28;20122;-53
2023/05/25 10:30:54;;;;;;;43.05;33.28;;;;;;;20.51;72.99;99769.78;5052039;28;20029;-57
2023/05/25 10:33:20;;;;;;;42.53;35.05;;;;;;;20.46;73.51;99764.03;5051109;28;20091;-56
2023/05/25 10:35:46;;;;;;;45.00;34.90;;;;;;;20.41;73.57;99761.06;5052161;28;20029;-58
2023/05/25 10:38:12;;;;;;;41.25;33.53;;;;;;;20.39;73.39;99759.56;5051682;28;20044;-55
2023/05/25 10:40:38;;;;;;;40.42;33.83;;;;;;;20.50;73.55;99756.34;5051264;28;20094;-56
2023/05/25 10:43:05;;;;;;;41.13;33.42;;;;;;;20.62;72.96;99753.97;5051727;28;20060;-56
2023/05/25 10:45:31;;;;;;;38.83;33.72;;;;;;;20.73;72.46;99744.47;5051559;28;20491;-57
2023/05/25 10:47:57;;;;;;;36.65;31.77;;;;;;;20.90;72.18;99751.41;5033579;28;20025;-58
2023/05/25 10:50:26;;;;;;;40.97;32.67;;;;;;;21.20;71.07;99750.41;5051241;28;20082;-54
2023/05/25 10:53:00;;;;;;;36.30;31.88;;;;;;;21.48;69.68;99753.16;5051695;28;20069;-58
2023/05/25 10:55:40;;;;;;;32.58;29.13;;;;;;;21.68;67.60;99748.94;5043359;28;20021;-61
2023/05/25 10:58:14;;;;;;;30.80;27.02;;;;;;;22.06;66.23;99748.53;5049008;28;20040;-52
2023/05/25 11:00:41;;;;;;;32.42;28.08;;;;;;;22.22;64.52;99740.03;5050191;28;20428;-56
2023/05/25 11:03:07;;;;;;;32.10;27.50;;;;;;;22.48;64.11;99733.03;5050559;28;20465;-54
2023/05/25 11:05:33;;;;;;;30.55;27.23;;;;;;;22.72;63.33;99744.44;5037474;28;20021;-57
2023/05/25 11:08:02;;;;;;;31.15;27.85;;;;;;;22.90;62.92;99743.00;5052079;28;20045;-54
2023/05/25 11:10:37;;;;;;;37.42;30.15;;;;;;;23.22;62.61;99732.34;5051186;28;20037;-57
2023/05/25 11:13:22;;;;;;;50.23;38.53;;;;;;;23.55;61.67;99734.22;5051603;28;20123;-54
2023/05/25 11:16:13;;;;;;;56.40;41.10;;;;;;;23.69;60.16;99736.97;5051654;28;20021;-55
2023/05/25 11:18:47;;;;;;;50.78;39.22;;;;;;;23.54;59.24;99699.75;5051141;28;20049;-54